sensor_id;sensor_type;location;lat;lon;timestamp;pressure;altitude;pressure_sealevel;temperature;humidity
2000;BME280;1001;48.87406500;9.59633600;2023-02-14T00:00:29;96768.00;;;-0.80;100.00
2000;BME280;1001;48.87406500;9.59633600;2023-02-14T00:02:56;96766.13;;;-0.78;100.00
2000;BME280;1001;48.87406500;9.59633600;2023-02-14T00:05:22;96768.09;;;-0.70;100.00
2000;BME280;1001;48.87406500;9.59633600;2023-02-14T00:07:49;96767.63;;;-0.75;100.00
2000;BME280;1001;48.87406500;9.59633600;2023-02-14T00:10:16;96767.16;;;-0.80;100.00
2000;BME280;1001;48.87406500;9.59633600;2023-02-14T00:12:43;96768.81;;;-0.79;100.00
2000;BME280;1001;48.87406500;9.59633600;2023-02-14T00:15:10;96760.31;;;-0.91;100.00
2000;BME280;1001;48.87406500;9.59633600;2023-02-14T00:17:50;96773.97;;;-0.90;100.00
2000;BME280;1001;48.87406500;9.59633600;2023-02-14T00:20:17;96768.22;;;-0.83;100.00
2000;BME280;1001;48.87406500;9.59633600;2023-02-14T00:22:44;96774.16;;;-0.82;100.00
2000;BME280;1001;48.87406500;9.59633600;2023-02-14T00:25:11;96775.56;;;-0.89;100.00
2000;BME280;1001;48.87406500;9.59633600;2023-02-14T00:27:37;96767.06;;;-0.90;100.00
2000;BME280;1001;48.87406500;9.59633600;2023-02-14T00:30:06;96773.72;;;-0.98;100.00
2000;BME280;1001;48.87406500;9.59633600;2023-02-14T00:32:33;96782.81;;;-0.94;100.00
2000;BME280;1001;48.87406500;9.59633600;2023-02-14T00:35:01;96771.50;;;-0.92;100.00
2000;BME280;1001;48.87406500;9.59633600;2023-02-14T00:37:27;96774.88;;;-0.91;100.00
2000;BME280;1001;48.87406500;9.59633600;2023-02-14T00:39:54;96771.03;;;-0.97;100.00
2000;BME280;1001;48.87406500;9.59633600;2023-02-14T00:42:24;96768.81;;;-1.12;100.00
2000;BME280;1001;48.87406500;9.59633600;2023-02-14T00:44:50;96760.53;;;-1.05;100.00
2000;BME280;1001;48.87406500;9.59633600;2023-02-14T00:47:17;96767.53;;;-1.07;100.00
2000;BME280;1001;48.87406500;9.59633600;2023-02-14T00:49:43;96759.03;;;-1.07;100.00
2000;BME280;1001;48.87406500;9.59633600;2023-02-14T00:52:11;96761.69;;;-1.09;100.00
2000;BME280;1001;48.87406500;9.59633600;2023-02-14T00:54:38;96765.69;;;-1.05;100.00
2000;BME280;1001;48.87406500;9.59633600;2023-02-14T00:57:04;96764.03;;;-1.17;100.00
2000;BME280;1001;48.87406500;9.59633600;2023-02-14T00:59:31;96744.09;;;-1.24;100.00
2000;BME280;1001;48.87406500;9.59633600;2023-02-14T01:01:58;96763.44;;;-1.20;100.00
2000;BME280;1001;48.87406500;9.59633600;2023-02-14T01:04:24;96761.69;;;-1.20;100.00
2000;BME280;1001;48.87406500;9.59633600;2023-02-14T01:06:51;96759.22;;;-1.32;100.00
2000;BME280;1001;48.87406500;9.59633600;2023-02-14T01:09:19;96763.44;;;-1.20;100.00
2000;BME280;1001;48.87406500;9.59633600;2023-02-14T01:11:46;96761.22;;;-1.25;100.00
2000;BME280;1001;48.87406500;9.59633600;2023-02-14T01:14:13;96764.38;;;-1.21;100.00
2000;BME280;1001;48.87406500;9.59633600;2023-02-14T01:16:39;96762.88;;;-1.24;100.00
2000;BME280;1001;48.87406500;9.59633600;2023-02-14T01:19:06;96759.81;;;-1.29;100.00
2000;BME280;1001;48.87406500;9.59633600;2023-02-14T01:21:36;96764.59;;;-1.24;100.00
2000;BME280;1001;48.87406500;9.59633600;2023-02-14T01:24:04;96763.69;;;-1.23;100.00
2000;BME280;1001;48.87406500;9.59633600;2023-02-14T01:26:35;96764.03;;;-1.17;100.00
2000;BME280;1001;48.87406500;9.59633600;2023-02-14T01:29:02;96762.38;;;-1.18;100.00
2000;BME280;1001;48.87406500;9.59633600;2023-02-14T01:31:31;96760.53;;;-1.16;100.00
2000;BME280;1001;48.87406500;9.59633600;2023-02-14T01:33:58;96764.25;;;-1.20;100.00
2000;BME280;1001;48.87406500;9.59633600;2023-02-14T01:36:26;96760.44;;;-1.25;100.00
2000;BME280;1001;48.87406500;9.59633600;2023-02-14T01:38:55;96770.91;;;-1.28;100.00
2000;BME280;1001;48.87406500;9.59633600;2023-02-14T01:41:24;96768.00;;;-1.24;100.00
2000;BME280;1001;48.87406500;9.59633600;2023-02-14T01:43:55;96758.44;;;-1.11;100.00
2000;BME280;1001;48.87406500;9.59633600;2023-02-14T01:46:23;96763.47;;;-1.09;100.00
2000;BME280;1001;48.87406500;9.59633600;2023-02-14T01:48:51;96753.97;;;-1.09;100.00
2000;BME280;1001;48.87406500;9.59633600;2023-02-14T01:51:19;96750.97;;;-1.03;100.00
2000;BME280;1001;48.87406500;9.59633600;2023-02-14T01:53:47;96756.56;;;-0.98;100.00
2000;BME280;1001;48.87406500;9.59633600;2023-02-14T01:56:21;96751.66;;;-1.01;100.00
2000;BME280;1001;48.87406500;9.59633600;2023-02-14T01:58:51;96750.16;;;-1.03;100.00
2000;BME280;1001;48.87406500;9.59633600;2023-02-14T02:01:20;96746.41;;;-1.10;100.00
2000;BME280;1001;48.87406500;9.59633600;2023-02-14T02:03:50;96746.28;;;-1.09;100.00
2000;BME280;1001;48.87406500;9.59633600;2023-02-14T02:06:21;96748.41;;;-1.03;100.00
2000;BME280;1001;48.87406500;9.59633600;2023-02-14T02:08:58;96740.47;;;-1.11;100.00
2000;BME280;1001;48.87406500;9.59633600;2023-02-14T02:11:28;96736.97;;;-1.21;100.00
2000;BME280;1001;48.87406500;9.59633600;2023-02-14T02:13:54;96753.41;;;-1.12;100.00
2000;BME280;1001;48.87406500;9.59633600;2023-02-14T02:16:34;96749.44;;;-1.05;100.00
2000;BME280;1001;48.87406500;9.59633600;2023-02-14T02:19:24;96743.13;;;-1.01;100.00
2000;BME280;1001;48.87406500;9.59633600;2023-02-14T02:25:21;96747.00;;;-1.07;100.00
2000;BME280;1001;48.87406500;9.59633600;2023-02-14T02:28:10;96746.75;;;-1.04;100.00
2000;BME280;1001;48.87406500;9.59633600;2023-02-14T02:31:00;96747.91;;;-0.97;100.00
2000;BME280;1001;48.87406500;9.59633600;2023-02-14T02:34:07;96749.22;;;-1.02;100.00
2000;BME280;1001;48.87406500;9.59633600;2023-02-14T02:36:47;96740.47;;;-1.00;100.00
2000;BME280;1001;48.87406500;9.59633600;2023-02-14T02:39:39;96740.94;;;-0.95;100.00
2000;BME280;1001;48.87406500;9.59633600;2023-02-14T02:42:20;96739.88;;;-1.03;100.00
2000;BME280;1001;48.87406500;9.59633600;2023-02-14T02:44:54;96745.59;;;-1.00;100.00
2000;BME280;1001;48.87406500;9.59633600;2023-02-14T02:47:27;96740.56;;;-1.01;100.00
2000;BME280;1001;48.87406500;9.59633600;2023-02-14T02:50:03;96738.97;;;-1.02;100.00
2000;BME280;1001;48.87406500;9.59633600;2023-02-14T02:52:54;96743.97;;;-1.01;100.00
2000;BME280;1001;48.87406500;9.59633600;2023-02-14T02:55:35;96742.00;;;-0.97;100.00
2000;BME280;1001;48.87406500;9.59633600;2023-02-14T02:58:17;96733.25;;;-0.95;100.00
2000;BME280;1001;48.87406500;9.59633600;2023-02-14T03:00:46;96738.38;;;-0.95;100.00
2000;BME280;1001;48.87406500;9.59633600;2023-02-14T03:03:13;96740.13;;;-0.95;100.00
2000;BME280;1001;48.87406500;9.59633600;2023-02-14T03:05:58;96745.50;;;-1.09;100.00
2000;BME280;1001;48.87406500;9.59633600;2023-02-14T03:08:29;96747.25;;;-1.10;100.00
2000;BME280;1001;48.87406500;9.59633600;2023-02-14T03:10:56;96742.56;;;-1.16;100.00
2000;BME280;1001;48.87406500;9.59633600;2023-02-14T03:13:59;96742.56;;;-1.16;100.00
2000;BME280;1001;48.87406500;9.59633600;2023-02-14T03:16:36;96736.03;;;-1.20;100.00
2000;BME280;1001;48.87406500;9.59633600;2023-02-14T03:21:55;96731.94;;;-1.22;100.00
2000;BME280;1001;48.87406500;9.59633600;2023-02-14T03:24:29;96736.13;;;-1.32;100.00
2000;BME280;1001;48.87406500;9.59633600;2023-02-14T03:27:03;96735.09;;;-1.30;100.00
2000;BME280;1001;48.87406500;9.59633600;2023-02-14T03:29:39;96730.69;;;-1.28;100.00
2000;BME280;1001;48.87406500;9.59633600;2023-02-14T03:32:12;96739.44;;;-1.30;100.00
2000;BME280;1001;48.87406500;9.59633600;2023-02-14T03:34:46;96739.31;;;-1.29;100.00
2000;BME280;1001;48.87406500;9.59633600;2023-02-14T03:37:24;96738.00;;;-1.34;100.00
2000;BME280;1001;48.87406500;9.59633600;2023-02-14T03:39:59;96736.03;;;-1.31;100.00
2000;BME280;1001;48.87406500;9.59633600;2023-02-14T03:42:31;96737.78;;;-1.31;100.00
2000;BME280;1001;48.87406500;9.59633600;2023-02-14T03:45:02;96737.31;;;-1.37;100.00
2000;BME280;1001;48.87406500;9.59633600;2023-02-14T03:47:33;96734.75;;;-1.37;100.00
2000;BME280;1001;48.87406500;9.59633600;2023-02-14T03:50:06;96730.91;;;-1.31;100.00
2000;BME280;1001;48.87406500;9.59633600;2023-02-14T03:52:35;96727.53;;;-1.31;100.00
2000;BME280;1001;48.87406500;9.59633600;2023-02-14T03:55:06;96735.00;;;-1.28;100.00
2000;BME280;1001;48.87406500;9.59633600;2023-02-14T03:57:37;96735.56;;;-1.25;100.00
2000;BME280;1001;48.87406500;9.59633600;2023-02-14T04:00:07;96731.13;;;-1.34;100.00
2000;BME280;1001;48.87406500;9.59633600;2023-02-14T04:02:36;96735.09;;;-1.30;100.00
2000;BME280;1001;48.87406500;9.59633600;2023-02-14T04:05:10;96737.09;;;-1.33;100.00
2000;BME280;1001;48.87406500;9.59633600;2023-02-14T04:07:44;96738.13;;;-1.36;100.00
2000;BME280;1001;48.87406500;9.59633600;2023-02-14T04:10:14;96739.53;;;-1.43;100.00
2000;BME280;1001;48.87406500;9.59633600;2023-02-14T04:12:40;96738.13;;;-1.47;100.00
2000;BME280;1001;48.87406500;9.59633600;2023-02-14T04:15:08;96731.84;;;-1.43;100.00
2000;BME280;1001;48.87406500;9.59633600;2023-02-14T04:17:35;96724.13;;;-1.54;100.00
2000;BME280;1001;48.87406500;9.59633600;2023-02-14T04:20:19;96722.97;;;-1.50;100.00
2000;BME280;1001;48.87406500;9.59633600;2023-02-14T04:22:46;96721.31;;;-1.51;100.00
2000;BME280;1001;48.87406500;9.59633600;2023-02-14T04:25:15;96711.44;;;-1.45;100.00
2000;BME280;1001;48.87406500;9.59633600;2023-02-14T04:27:41;96719.00;;;-1.43;100.00
2000;BME280;1001;48.87406500;9.59633600;2023-02-14T04:30:09;96723.19;;;-1.53;100.00
2000;BME280;1001;48.87406500;9.59633600;2023-02-14T04:32:37;96721.91;;;-1.48;100.00
2000;BME280;1001;48.87406500;9.59633600;2023-02-14T04:35:05;96720.19;;;-1.47;100.00
2000;BME280;1001;48.87406500;9.59633600;2023-02-14T04:37:32;96717.72;;;-1.49;100.00
2000;BME280;1001;48.87406500;9.59633600;2023-02-14T04:39:59;96711.75;;;-1.60;100.00
2000;BME280;1001;48.87406500;9.59633600;2023-02-14T04:42:27;96714.91;;;-1.57;100.00
2000;BME280;1001;48.87406500;9.59633600;2023-02-14T04:44:53;96709.09;;;-1.59;100.00
2000;BME280;1001;48.87406500;9.59633600;2023-02-14T04:47:20;96706.53;;;-1.59;100.00
2000;BME280;1001;48.87406500;9.59633600;2023-02-14T04:49:46;96710.56;;;-1.67;100.00
2000;BME280;1001;48.87406500;9.59633600;2023-02-14T04:52:14;96704.53;;;-1.55;100.00
2000;BME280;1001;48.87406500;9.59633600;2023-02-14T04:54:40;96713.97;;;-1.67;100.00
2000;BME280;1001;48.87406500;9.59633600;2023-02-14T04:57:07;96714.31;;;-1.60;100.00
2000;BME280;1001;48.87406500;9.59633600;2023-02-14T04:59:35;96715.38;;;-1.63;100.00
2000;BME280;1001;48.87406500;9.59633600;2023-02-14T05:02:02;96702.19;;;-1.69;100.00
2000;BME280;1001;48.87406500;9.59633600;2023-02-14T05:04:28;96699.88;;;-1.61;100.00
2000;BME280;1001;48.87406500;9.59633600;2023-02-14T05:06:55;96705.72;;;-1.59;100.00
2000;BME280;1001;48.87406500;9.59633600;2023-02-14T05:09:22;96707.91;;;-1.66;100.00
2000;BME280;1001;48.87406500;9.59633600;2023-02-14T05:11:48;96712.44;;;-1.69;100.00
2000;BME280;1001;48.87406500;9.59633600;2023-02-14T05:14:15;96707.91;;;-1.66;100.00
2000;BME280;1001;48.87406500;9.59633600;2023-02-14T05:16:43;96698.09;;;-1.61;100.00
2000;BME280;1001;48.87406500;9.59633600;2023-02-14T05:19:10;96705.66;;;-1.70;100.00
2000;BME280;1001;48.87406500;9.59633600;2023-02-14T05:21:36;96699.63;;;-1.69;100.00
2000;BME280;1001;48.87406500;9.59633600;2023-02-14T05:24:03;96694.50;;;-1.58;100.00
2000;BME280;1001;48.87406500;9.59633600;2023-02-14T05:26:30;96692.63;;;-1.67;100.00
2000;BME280;1001;48.87406500;9.59633600;2023-02-14T05:28:57;96696.59;;;-1.63;100.00
2000;BME280;1001;48.87406500;9.59633600;2023-02-14T05:31:24;96702.88;;;-1.67;100.00
2000;BME280;1001;48.87406500;9.59633600;2023-02-14T05:33:52;96690.53;;;-1.73;100.00
2000;BME280;1001;48.87406500;9.59633600;2023-02-14T05:36:19;96699.50;;;-1.68;100.00
2000;BME280;1001;48.87406500;9.59633600;2023-02-14T05:38:45;96696.03;;;-1.67;100.00
2000;BME280;1001;48.87406500;9.59633600;2023-02-14T05:41:12;96691.13;;;-1.70;100.00
2000;BME280;1001;48.87406500;9.59633600;2023-02-14T05:43:39;96694.97;;;-1.64;100.00
2000;BME280;1001;48.87406500;9.59633600;2023-02-14T05:46:05;96692.75;;;-1.58;100.00
2000;BME280;1001;48.87406500;9.59633600;2023-02-14T05:48:32;96694.97;;;-1.64;100.00
2000;BME280;1001;48.87406500;9.59633600;2023-02-14T05:51:03;96689.97;;;-1.66;100.00
2000;BME280;1001;48.87406500;9.59633600;2023-02-14T05:53:30;96689.28;;;-1.57;100.00
2000;BME280;1001;48.87406500;9.59633600;2023-02-14T05:55:57;96695.09;;;-1.66;100.00
2000;BME280;1001;48.87406500;9.59633600;2023-02-14T05:58:23;96697.66;;;-1.66;100.00
2000;BME280;1001;48.87406500;9.59633600;2023-02-14T06:00:50;96703.13;;;-1.59;100.00
2000;BME280;1001;48.87406500;9.59633600;2023-02-14T06:03:17;96697.88;;;-1.58;100.00
2000;BME280;1001;48.87406500;9.59633600;2023-02-14T06:05:44;96698.22;;;-1.62;100.00
2000;BME280;1001;48.87406500;9.59633600;2023-02-14T06:08:12;96697.75;;;-1.56;100.00
2000;BME280;1001;48.87406500;9.59633600;2023-02-14T06:10:38;96707.66;;;-1.63;100.00
2000;BME280;1001;48.87406500;9.59633600;2023-02-14T06:13:05;96703.84;;;-1.68;100.00
2000;BME280;1001;48.87406500;9.59633600;2023-02-14T06:15:33;96712.56;;;-1.49;100.00
2000;BME280;1001;48.87406500;9.59633600;2023-02-14T06:18:00;96713.28;;;-1.58;100.00
2000;BME280;1001;48.87406500;9.59633600;2023-02-14T06:20:27;96709.66;;;-1.55;100.00
2000;BME280;1001;48.87406500;9.59633600;2023-02-14T06:22:53;96715.34;;;-1.74;100.00
2000;BME280;1001;48.87406500;9.59633600;2023-02-14T06:25:22;96722.91;;;-1.83;100.00
2000;BME280;1001;48.87406500;9.59633600;2023-02-14T06:27:49;96715.34;;;-1.85;100.00
2000;BME280;1001;48.87406500;9.59633600;2023-02-14T06:30:17;96713.13;;;-1.78;100.00
2000;BME280;1001;48.87406500;9.59633600;2023-02-14T06:32:44;96725.63;;;-1.63;100.00
2000;BME280;1001;48.87406500;9.59633600;2023-02-14T06:35:10;96726.31;;;-1.61;100.00
2000;BME280;1001;48.87406500;9.59633600;2023-02-14T06:37:38;96725.13;;;-1.68;100.00
2000;BME280;1001;48.87406500;9.59633600;2023-02-14T06:40:07;96727.75;;;-1.57;100.00
2000;BME280;1001;48.87406500;9.59633600;2023-02-14T06:42:35;96723.53;;;-1.58;100.00
2000;BME280;1001;48.87406500;9.59633600;2023-02-14T06:45:03;96725.53;;;-1.61;100.00
2000;BME280;1001;48.87406500;9.59633600;2023-02-14T06:47:29;96736.00;;;-1.64;100.00
2000;BME280;1001;48.87406500;9.59633600;2023-02-14T06:49:56;96735.53;;;-1.69;100.00
2000;BME280;1001;48.87406500;9.59633600;2023-02-14T06:52:24;96728.88;;;-1.61;100.00
2000;BME280;1001;48.87406500;9.59633600;2023-02-14T06:54:50;96729.00;;;-1.51;100.00
2000;BME280;1001;48.87406500;9.59633600;2023-02-14T06:57:17;96725.66;;;-1.41;100.00
2000;BME280;1001;48.87406500;9.59633600;2023-02-14T06:59:45;96729.03;;;-1.40;100.00
2000;BME280;1001;48.87406500;9.59633600;2023-02-14T07:02:12;96728.69;;;-1.35;100.00
2000;BME280;1001;48.87406500;9.59633600;2023-02-14T07:04:38;96731.47;;;-1.39;100.00
2000;BME280;1001;48.87406500;9.59633600;2023-02-14T07:07:05;96723.31;;;-1.55;100.00
2000;BME280;1001;48.87406500;9.59633600;2023-02-14T07:09:32;96725.06;;;-1.44;100.00
2000;BME280;1001;48.87406500;9.59633600;2023-02-14T07:11:58;96735.09;;;-1.41;100.00
2000;BME280;1001;48.87406500;9.59633600;2023-02-14T07:14:25;96737.66;;;-1.41;100.00
2000;BME280;1001;48.87406500;9.59633600;2023-02-14T07:16:53;96721.56;;;-1.32;100.00
2000;BME280;1001;48.87406500;9.59633600;2023-02-14T07:19:20;96719.94;;;-1.22;100.00
2000;BME280;1001;48.87406500;9.59633600;2023-02-14T07:21:46;96718.31;;;-1.12;100.00
2000;BME280;1001;48.87406500;9.59633600;2023-02-14T07:24:13;96718.91;;;-1.19;100.00
2000;BME280;1001;48.87406500;9.59633600;2023-02-14T07:26:40;96726.00;;;-1.12;100.00
2000;BME280;1001;48.87406500;9.59633600;2023-02-14T07:29:06;96723.53;;;-1.13;100.00
2000;BME280;1001;48.87406500;9.59633600;2023-02-14T07:31:33;96725.88;;;-1.10;100.00
2000;BME280;1001;48.87406500;9.59633600;2023-02-14T07:34:04;96723.06;;;-0.96;100.00
2000;BME280;1001;48.87406500;9.59633600;2023-02-14T07:36:31;96720.25;;;-0.82;100.00
2000;BME280;1001;48.87406500;9.59633600;2023-02-14T07:38:57;96711.63;;;-0.92;100.00
2000;BME280;1001;48.87406500;9.59633600;2023-02-14T07:41:24;96712.69;;;-0.84;100.00
2000;BME280;1001;48.87406500;9.59633600;2023-02-14T07:43:51;96717.41;;;-0.68;100.00
2000;BME280;1001;48.87406500;9.59633600;2023-02-14T07:46:17;96720.25;;;-0.71;100.00
2000;BME280;1001;48.87406500;9.59633600;2023-02-14T07:48:44;96712.75;;;-0.63;100.00
2000;BME280;1001;48.87406500;9.59633600;2023-02-14T07:51:12;96717.19;;;-0.65;100.00
2000;BME280;1001;48.87406500;9.59633600;2023-02-14T07:53:40;96712.56;;;-0.39;100.00
2000;BME280;1001;48.87406500;9.59633600;2023-02-14T07:56:06;96717.47;;;-0.36;100.00
2000;BME280;1001;48.87406500;9.59633600;2023-02-14T07:58:33;96722.16;;;-0.10;100.00
2000;BME280;1001;48.87406500;9.59633600;2023-02-14T08:01:00;96712.94;;;-0.12;100.00
2000;BME280;1001;48.87406500;9.59633600;2023-02-14T08:03:26;96720.22;;;0.04;100.00
2000;BME280;1001;48.87406500;9.59633600;2023-02-14T08:05:53;96719.38;;;0.03;100.00
2000;BME280;1001;48.87406500;9.59633600;2023-02-14T08:08:25;96722.47;;;-0.03;100.00
2000;BME280;1001;48.87406500;9.59633600;2023-02-14T08:10:52;96721.78;;;0.16;100.00
2000;BME280;1001;48.87406500;9.59633600;2023-02-14T08:13:19;96730.06;;;0.40;100.00
2000;BME280;1001;48.87406500;9.59633600;2023-02-14T08:15:45;96722.56;;;0.57;100.00
2000;BME280;1001;48.87406500;9.59633600;2023-02-14T08:18:31;96732.00;;;0.68;100.00
2000;BME280;1001;48.87406500;9.59633600;2023-02-14T08:20:59;96734.66;;;0.87;100.00
2000;BME280;1001;48.87406500;9.59633600;2023-02-14T08:23:27;96731.59;;;1.03;100.00
2000;BME280;1001;48.87406500;9.59633600;2023-02-14T08:25:54;96734.16;;;1.03;100.00
2000;BME280;1001;48.87406500;9.59633600;2023-02-14T08:28:20;96731.97;;;0.98;100.00
2000;BME280;1001;48.87406500;9.59633600;2023-02-14T08:30:48;96739.53;;;1.20;100.00
2000;BME280;1001;48.87406500;9.59633600;2023-02-14T08:33:14;96738.06;;;1.27;100.00
2000;BME280;1001;48.87406500;9.59633600;2023-02-14T08:35:41;96734.78;;;1.35;100.00
2000;BME280;1001;48.87406500;9.59633600;2023-02-14T08:38:09;96734.28;;;1.41;100.00
2000;BME280;1001;48.87406500;9.59633600;2023-02-14T08:40:37;96728.47;;;1.49;100.00
2000;BME280;1001;48.87406500;9.59633600;2023-02-14T08:43:05;96736.34;;;1.57;100.00
2000;BME280;1001;48.87406500;9.59633600;2023-02-14T08:45:34;96730.09;;;1.50;100.00
2000;BME280;1001;48.87406500;9.59633600;2023-02-14T08:48:05;96724.81;;;1.80;100.00
2000;BME280;1001;48.87406500;9.59633600;2023-02-14T08:50:33;96715.72;;;1.76;100.00
2000;BME280;1001;48.87406500;9.59633600;2023-02-14T08:52:59;96721.72;;;1.76;100.00
2000;BME280;1001;48.87406500;9.59633600;2023-02-14T08:55:26;96722.41;;;1.88;100.00
2000;BME280;1001;48.87406500;9.59633600;2023-02-14T08:57:55;96713.31;;;2.03;100.00
2000;BME280;1001;48.87406500;9.59633600;2023-02-14T09:00:22;96720.63;;;2.17;100.00
2000;BME280;1001;48.87406500;9.59633600;2023-02-14T09:02:49;96710.28;;;2.27;100.00
2000;BME280;1001;48.87406500;9.59633600;2023-02-14T09:05:17;96714.19;;;2.40;100.00
2000;BME280;1001;48.87406500;9.59633600;2023-02-14T09:07:43;96721.75;;;2.61;100.00
2000;BME280;1001;48.87406500;9.59633600;2023-02-14T09:10:10;96713.75;;;2.64;100.00
2000;BME280;1001;48.87406500;9.59633600;2023-02-14T09:12:38;96712.81;;;2.92;100.00
2000;BME280;1001;48.87406500;9.59633600;2023-02-14T09:15:07;96709.63;;;3.08;100.00
2000;BME280;1001;48.87406500;9.59633600;2023-02-14T09:17:34;96709.88;;;3.14;100.00
2000;BME280;1001;48.87406500;9.59633600;2023-02-14T09:20:01;96717.44;;;3.25;100.00
2000;BME280;1001;48.87406500;9.59633600;2023-02-14T09:22:28;96715.13;;;3.22;100.00
2000;BME280;1001;48.87406500;9.59633600;2023-02-14T09:24:54;96708.69;;;3.54;100.00
2000;BME280;1001;48.87406500;9.59633600;2023-02-14T09:27:21;96711.00;;;3.57;100.00
2000;BME280;1001;48.87406500;9.59633600;2023-02-14T09:29:48;96713.28;;;3.60;100.00
2000;BME280;1001;48.87406500;9.59633600;2023-02-14T09:32:17;96711.66;;;3.76;100.00
2000;BME280;1001;48.87406500;9.59633600;2023-02-14T09:34:44;96702.34;;;3.83;100.00
2000;BME280;1001;48.87406500;9.59633600;2023-02-14T09:37:28;96703.91;;;3.94;100.00
2000;BME280;1001;48.87406500;9.59633600;2023-02-14T09:40:13;96706.63;;;4.10;100.00
2000;BME280;1001;48.87406500;9.59633600;2023-02-14T09:42:55;96713.38;;;4.21;100.00
2000;BME280;1001;48.87406500;9.59633600;2023-02-14T09:45:27;96720.06;;;4.31;100.00
2000;BME280;1001;48.87406500;9.59633600;2023-02-14T09:47:59;96712.00;;;4.34;100.00
2000;BME280;1001;48.87406500;9.59633600;2023-02-14T09:50:29;96716.56;;;4.40;100.00
2000;BME280;1001;48.87406500;9.59633600;2023-02-14T09:53:01;96709.16;;;4.45;100.00
2000;BME280;1001;48.87406500;9.59633600;2023-02-14T09:55:38;96711.94;;;4.69;100.00
2000;BME280;1001;48.87406500;9.59633600;2023-02-14T09:58:13;96709.88;;;4.73;100.00
2000;BME280;1001;48.87406500;9.59633600;2023-02-14T10:00:45;96715.53;;;4.76;100.00
2000;BME280;1001;48.87406500;9.59633600;2023-02-14T10:03:40;96703.44;;;4.85;100.00
2000;BME280;1001;48.87406500;9.59633600;2023-02-14T10:06:19;96700.47;;;5.06;100.00
2000;BME280;1001;48.87406500;9.59633600;2023-02-14T10:08:55;96710.22;;;5.12;100.00
2000;BME280;1001;48.87406500;9.59633600;2023-02-14T10:11:27;96708.16;;;5.23;100.00
2000;BME280;1001;48.87406500;9.59633600;2023-02-14T10:13:58;96704.47;;;5.34;100.00
2000;BME280;1001;48.87406500;9.59633600;2023-02-14T10:16:31;96705.00;;;5.45;100.00
2000;BME280;1001;48.87406500;9.59633600;2023-02-14T10:19:03;96709.22;;;5.55;100.00
2000;BME280;1001;48.87406500;9.59633600;2023-02-14T10:21:36;96704.88;;;5.71;100.00
2000;BME280;1001;48.87406500;9.59633600;2023-02-14T10:24:12;96702.47;;;5.78;100.00
2000;BME280;1001;48.87406500;9.59633600;2023-02-14T10:26:41;96697.31;;;5.86;100.00
2000;BME280;1001;48.87406500;9.59633600;2023-02-14T10:29:12;96703.84;;;5.98;100.00
2000;BME280;1001;48.87406500;9.59633600;2023-02-14T10:31:43;96699.13;;;6.17;100.00
2000;BME280;1001;48.87406500;9.59633600;2023-02-14T10:34:23;96702.38;;;6.11;100.00
2000;BME280;1001;48.87406500;9.59633600;2023-02-14T10:37:02;96691.00;;;6.21;100.00
2000;BME280;1001;48.87406500;9.59633600;2023-02-14T10:39:51;96693.13;;;6.33;99.72
2000;BME280;1001;48.87406500;9.59633600;2023-02-14T10:42:33;96682.41;;;6.36;100.00
2000;BME280;1001;48.87406500;9.59633600;2023-02-14T10:45:17;96689.06;;;6.31;98.58
2000;BME280;1001;48.87406500;9.59633600;2023-02-14T10:47:51;96684.72;;;6.15;96.43
2000;BME280;1001;48.87406500;9.59633600;2023-02-14T10:50:27;96686.31;;;6.08;96.10
2000;BME280;1001;48.87406500;9.59633600;2023-02-14T10:53:03;96686.47;;;6.31;97.96
2000;BME280;1001;48.87406500;9.59633600;2023-02-14T10:55:39;96684.81;;;6.54;97.65
2000;BME280;1001;48.87406500;9.59633600;2023-02-14T10:58:11;96676.34;;;6.76;97.24
2000;BME280;1001;48.87406500;9.59633600;2023-02-14T11:00:46;96675.84;;;6.80;95.07
2000;BME280;1001;48.87406500;9.59633600;2023-02-14T11:03:15;96679.59;;;6.78;94.13
2000;BME280;1001;48.87406500;9.59633600;2023-02-14T11:05:45;96672.13;;;6.67;94.34
2000;BME280;1001;48.87406500;9.59633600;2023-02-14T11:08:21;96668.34;;;6.85;93.90
2000;BME280;1001;48.87406500;9.59633600;2023-02-14T11:10:49;96665.25;;;6.90;94.14
2000;BME280;1001;48.87406500;9.59633600;2023-02-14T11:13:33;96663.03;;;7.18;94.78
2000;BME280;1001;48.87406500;9.59633600;2023-02-14T11:16:02;96668.88;;;7.20;92.58
2000;BME280;1001;48.87406500;9.59633600;2023-02-14T11:18:30;96667.06;;;7.28;95.59
2000;BME280;1001;48.87406500;9.59633600;2023-02-14T11:21:06;96657.28;;;7.30;94.74
2000;BME280;1001;48.87406500;9.59633600;2023-02-14T11:23:36;96664.19;;;7.46;92.20
2000;BME280;1001;48.87406500;9.59633600;2023-02-14T11:26:06;96660.34;;;7.34;91.90
2000;BME280;1001;48.87406500;9.59633600;2023-02-14T11:28:34;96649.91;;;7.42;94.09
2000;BME280;1001;48.87406500;9.59633600;2023-02-14T11:31:01;96656.78;;;7.57;93.27
2000;BME280;1001;48.87406500;9.59633600;2023-02-14T11:33:33;96648.25;;;7.72;90.52
2000;BME280;1001;48.87406500;9.59633600;2023-02-14T11:36:09;96649.19;;;7.79;90.93
2000;BME280;1001;48.87406500;9.59633600;2023-02-14T11:38:37;96644.97;;;7.78;88.44
2000;BME280;1001;48.87406500;9.59633600;2023-02-14T11:41:06;96647.88;;;7.83;91.81
2000;BME280;1001;48.87406500;9.59633600;2023-02-14T11:43:34;96643.00;;;7.80;90.30
2000;BME280;1001;48.87406500;9.59633600;2023-02-14T11:46:11;96640.22;;;7.81;88.48
2000;BME280;1001;48.87406500;9.59633600;2023-02-14T11:48:53;96634.88;;;7.97;88.00
2000;BME280;1001;48.87406500;9.59633600;2023-02-14T11:51:30;96639.84;;;8.07;88.12
2000;BME280;1001;48.87406500;9.59633600;2023-02-14T11:54:00;96633.06;;;8.20;85.62
2000;BME280;1001;48.87406500;9.59633600;2023-02-14T11:56:50;96625.38;;;8.27;85.26
2000;BME280;1001;48.87406500;9.59633600;2023-02-14T11:59:27;96625.13;;;8.14;83.68